createdAt,value
2023-03-06T00:00:46.057Z,14.5
2023-03-06T00:01:38.216Z,13.0
2023-03-06T00:02:38.037Z,12.6
2023-03-06T00:03:38.729Z,13.7
2023-03-06T00:04:38.445Z,12.1
2023-03-06T00:05:38.806Z,13.3
2023-03-06T00:06:38.119Z,13.7
2023-03-06T00:07:38.337Z,14.5
2023-03-06T00:08:38.517Z,13.9
2023-03-06T00:09:38.389Z,13.7
2023-03-06T00:10:38.781Z,14.4
2023-03-06T00:11:38.032Z,13.1
2023-03-06T00:12:38.745Z,12.0
2023-03-06T00:13:38.430Z,15.1
2023-03-06T00:14:37.865Z,15.0
2023-03-06T00:15:38.042Z,12.2
2023-03-06T00:16:38.484Z,14.2
2023-03-06T00:17:38.541Z,13.1
2023-03-06T00:18:38.409Z,12.5
2023-03-06T00:19:38.288Z,12.8
2023-03-06T00:20:39.297Z,13.4
2023-03-06T00:21:41.210Z,11.5
2023-03-06T00:22:39.061Z,11.6
2023-03-06T00:23:38.449Z,12.1
2023-03-06T00:24:37.968Z,13.7
2023-03-06T00:25:41.199Z,12.7
2023-03-06T00:26:38.633Z,12.3
2023-03-06T00:27:38.498Z,11.3
2023-03-06T00:28:37.992Z,12.9
2023-03-06T00:29:38.126Z,12.4
2023-03-06T00:30:38.348Z,12.4
2023-03-06T00:31:38.637Z,13.1
2023-03-06T00:32:38.075Z,14.1
2023-03-06T00:33:38.177Z,11.6
2023-03-06T00:34:37.982Z,11.3
2023-03-06T00:35:39.214Z,11.9
2023-03-06T00:36:37.952Z,13.6
2023-03-06T00:37:39.250Z,12.1
2023-03-06T00:38:38.546Z,11.7
2023-03-06T00:39:38.807Z,11.9
2023-03-06T00:40:38.603Z,12.7
2023-03-06T00:41:38.367Z,11.0
2023-03-06T00:42:38.209Z,11.4
2023-03-06T00:43:38.522Z,10.8
2023-03-06T00:44:38.741Z,11.8
2023-03-06T00:45:38.552Z,13.1
2023-03-06T00:46:38.449Z,13.0
2023-03-06T00:47:38.788Z,10.6
2023-03-06T00:48:37.933Z,10.9
2023-03-06T00:49:38.672Z,11.1
2023-03-06T00:50:38.011Z,10.9
2023-03-06T00:51:38.227Z,10.7
2023-03-06T00:52:38.102Z,11.3
2023-03-06T00:53:37.848Z,11.1
2023-03-06T00:54:39.394Z,10.9
2023-03-06T00:55:37.956Z,11.5
2023-03-06T00:56:38.158Z,12.9
2023-03-06T00:57:38.409Z,12.3
2023-03-06T00:58:38.729Z,11.4
2023-03-06T00:59:38.608Z,11.1
2023-03-06T01:00:38.473Z,11.1
2023-03-06T01:01:38.231Z,12.0
2023-03-06T01:02:38.300Z,10.6
2023-03-06T01:03:38.001Z,10.7
2023-03-06T01:04:38.148Z,11.7
2023-03-06T01:05:38.504Z,11.5
2023-03-06T01:06:38.222Z,9.6
2023-03-06T01:07:38.097Z,10.5
2023-03-06T01:08:38.221Z,11.5
2023-03-06T01:09:38.530Z,12.2
2023-03-06T01:10:38.917Z,10.7
2023-03-06T01:11:38.475Z,12.2
2023-03-06T01:12:38.316Z,10.4
2023-03-06T01:13:38.155Z,10.5
2023-03-06T01:14:38.359Z,13.1
2023-03-06T01:15:38.183Z,9.6
2023-03-06T01:16:38.001Z,9.8
2023-03-06T01:17:39.025Z,9.1
2023-03-06T01:18:39.017Z,10.0
2023-03-06T01:19:38.343Z,7.7
2023-03-06T01:20:38.208Z,11.0
2023-03-06T01:21:38.475Z,11.9
2023-03-06T01:22:38.260Z,11.0
2023-03-06T01:23:38.089Z,10.8
2023-03-06T01:24:38.317Z,8.8
2023-03-06T01:25:38.628Z,11.6
2023-03-06T01:26:38.415Z,9.3
2023-03-06T01:27:38.206Z,10.7
2023-03-06T01:28:38.699Z,10.1
2023-03-06T01:29:38.201Z,9.5
2023-03-06T01:30:38.016Z,10.6
2023-03-06T01:31:38.820Z,11.0
2023-03-06T01:32:38.732Z,11.0
2023-03-06T01:33:38.414Z,9.0
2023-03-06T01:34:38.210Z,10.1
2023-03-06T01:35:38.851Z,11.5
2023-03-06T01:36:38.680Z,10.5
2023-03-06T01:37:38.689Z,10.6
2023-03-06T01:38:38.639Z,10.2
2023-03-06T01:39:38.075Z,11.0
2023-03-06T01:40:38.530Z,10.2
2023-03-06T01:41:38.038Z,10.4
2023-03-06T01:42:38.423Z,9.7
2023-03-06T01:43:39.015Z,9.6
2023-03-06T01:44:56.537Z,10.1
2023-03-06T01:45:43.189Z,10.2
2023-03-06T01:46:41.407Z,10.7
2023-03-06T01:47:38.845Z,9.2
2023-03-06T01:48:38.723Z,9.8
2023-03-06T01:49:39.327Z,9.6
2023-03-06T01:50:38.223Z,10.3
2023-03-06T01:51:39.820Z,9.7
2023-03-06T01:52:43.047Z,10.9
2023-03-06T01:53:39.115Z,11.1
2023-03-06T01:54:43.327Z,9.7
2023-03-06T01:55:38.488Z,9.1
2023-03-06T01:56:39.886Z,10.5
2023-03-06T01:57:41.341Z,10.5
2023-03-06T01:58:38.644Z,9.1
2023-03-06T01:59:39.340Z,8.5
2023-03-06T02:00:38.532Z,9.6
2023-03-06T02:01:39.162Z,10.2
2023-03-06T02:02:39.129Z,8.8
2023-03-06T02:03:39.480Z,8.1
2023-03-06T02:04:39.180Z,9.0
2023-03-06T02:05:39.312Z,10.0
2023-03-06T02:06:39.184Z,9.2
2023-03-06T02:07:40.443Z,9.5
2023-03-06T02:08:38.555Z,8.7
2023-03-06T02:09:38.178Z,8.0
2023-03-06T02:10:39.675Z,9.2
2023-03-06T02:11:38.183Z,10.0
2023-03-06T02:12:39.127Z,9.2
2023-03-06T02:13:39.366Z,9.3
2023-03-06T02:14:38.917Z,9.1
2023-03-06T02:15:38.340Z,10.4
2023-03-06T02:16:38.410Z,9.0
2023-03-06T02:17:38.457Z,8.7
2023-03-06T02:18:39.700Z,8.4
2023-03-06T02:19:46.085Z,9.5
2023-03-06T02:20:43.065Z,10.8
2023-03-06T02:21:38.876Z,9.6
2023-03-06T02:22:43.615Z,8.8
2023-03-06T02:23:45.616Z,8.4
2023-03-06T02:24:41.584Z,8.2
2023-03-06T02:25:42.326Z,8.3
2023-03-06T02:26:40.182Z,8.9
2023-03-06T02:27:38.121Z,10.2
2023-03-06T02:28:38.104Z,9.4
2023-03-06T02:29:38.344Z,8.9
2023-03-06T02:30:39.112Z,8.4
2023-03-06T02:31:37.955Z,8.7
2023-03-06T02:32:38.723Z,9.0
2023-03-06T02:33:38.467Z,8.8
2023-03-06T02:34:43.242Z,9.8
2023-03-06T02:35:39.126Z,8.4
2023-03-06T02:36:40.446Z,7.3
2023-03-06T02:37:38.596Z,8.4
2023-03-06T02:38:43.461Z,9.4
2023-03-06T02:39:40.598Z,7.5
2023-03-06T02:40:38.360Z,7.8
2023-03-06T02:41:37.918Z,8.3
2023-03-06T02:42:43.423Z,7.9
2023-03-06T02:43:39.000Z,8.0
2023-03-06T02:44:38.206Z,8.6
2023-03-06T02:45:39.685Z,8.2
2023-03-06T02:46:38.784Z,8.8
2023-03-06T02:47:38.805Z,7.5
2023-03-06T02:48:38.437Z,7.4
2023-03-06T02:49:38.285Z,8.1
2023-03-06T02:50:38.860Z,9.1
2023-03-06T02:51:37.900Z,9.3
2023-03-06T02:52:38.547Z,8.8
2023-03-06T02:53:38.379Z,8.3
2023-03-06T02:54:38.226Z,8.8
2023-03-06T02:55:38.029Z,7.5
2023-03-06T02:56:38.759Z,8.1
2023-03-06T02:57:38.539Z,7.9
2023-03-06T02:58:38.404Z,8.6
2023-03-06T02:59:38.609Z,8.8
2023-03-06T03:00:39.044Z,8.9
2023-03-06T03:01:38.291Z,9.5
2023-03-06T03:02:38.031Z,7.2
2023-03-06T03:03:38.792Z,7.8
2023-03-06T03:04:38.236Z,7.8
2023-03-06T03:05:37.905Z,7.6
2023-03-06T03:06:38.696Z,8.3
2023-03-06T03:07:38.581Z,8.0
2023-03-06T03:08:38.311Z,8.0
2023-03-06T03:09:38.104Z,9.2
2023-03-06T03:10:38.030Z,7.5
2023-03-06T03:11:38.188Z,8.4
2023-03-06T03:12:39.859Z,6.6
2023-03-06T03:13:38.195Z,8.2
2023-03-06T03:14:38.047Z,7.8
2023-03-06T03:15:57.193Z,7.3
2023-03-06T03:16:39.251Z,6.9
2023-03-06T03:17:38.865Z,7.1
2023-03-06T03:18:38.195Z,8.0
2023-03-06T03:19:38.410Z,6.9
2023-03-06T03:20:40.487Z,7.2
2023-03-06T03:21:39.079Z,8.1
2023-03-06T03:22:38.143Z,7.5
2023-03-06T03:23:38.330Z,8.3
2023-03-06T03:24:38.023Z,7.8
2023-03-06T03:25:38.705Z,7.4
2023-03-06T03:26:38.563Z,6.0
2023-03-06T03:27:38.376Z,7.4
2023-03-06T03:28:38.225Z,6.9
2023-03-06T03:29:39.025Z,7.2
2023-03-06T03:30:39.483Z,8.0
2023-03-06T03:31:38.447Z,7.2
2023-03-06T03:32:38.457Z,7.4
2023-03-06T03:33:38.849Z,7.6
2023-03-06T03:34:37.898Z,7.7
2023-03-06T03:35:38.727Z,7.5
2023-03-06T03:36:38.601Z,8.0
2023-03-06T03:37:39.615Z,8.1
2023-03-06T03:38:38.578Z,7.3
2023-03-06T03:39:38.405Z,7.2
2023-03-06T03:40:38.620Z,7.5
2023-03-06T03:41:38.530Z,7.0
2023-03-06T03:42:38.374Z,8.1
2023-03-06T03:43:38.197Z,6.8
2023-03-06T03:44:38.496Z,7.6
2023-03-06T03:45:39.035Z,8.4
2023-03-06T03:46:38.647Z,6.7
2023-03-06T03:47:38.218Z,6.5
2023-03-06T03:48:38.073Z,5.5
2023-03-06T03:49:38.737Z,7.5
2023-03-06T03:50:38.592Z,8.1
2023-03-06T03:51:38.343Z,6.2
2023-03-06T03:52:38.168Z,8.0
2023-03-06T03:53:38.593Z,8.6
2023-03-06T03:54:38.213Z,7.7
2023-03-06T03:55:38.054Z,7.4
2023-03-06T03:56:38.757Z,6.9
2023-03-06T03:57:38.607Z,6.4
2023-03-06T03:58:38.563Z,7.8
2023-03-06T03:59:38.143Z,6.4
2023-03-06T04:00:37.974Z,7.1
2023-03-06T04:01:39.677Z,6.8
2023-03-06T04:02:38.572Z,7.7
2023-03-06T04:03:38.364Z,8.1
2023-03-06T04:04:38.324Z,8.1
2023-03-06T04:05:38.011Z,8.0
2023-03-06T04:06:38.805Z,7.2
2023-03-06T04:07:38.518Z,6.7
2023-03-06T04:08:38.384Z,6.2
2023-03-06T04:09:38.237Z,6.8
2023-03-06T04:10:38.026Z,7.7
2023-03-06T04:11:38.114Z,7.2
2023-03-06T04:12:38.358Z,7.5
2023-03-06T04:13:37.870Z,6.2
2023-03-06T04:14:38.585Z,7.3
2023-03-06T04:15:38.424Z,6.9
2023-03-06T04:16:38.219Z,6.8
2023-03-06T04:17:38.027Z,6.8
2023-03-06T04:18:38.791Z,6.6
2023-03-06T04:19:38.679Z,7.8
2023-03-06T04:20:38.527Z,6.6
2023-03-06T04:21:38.348Z,6.6
2023-03-06T04:22:38.069Z,6.7
2023-03-06T04:23:37.855Z,7.7
2023-03-06T04:24:38.511Z,7.0
2023-03-06T04:25:37.967Z,6.6
2023-03-06T04:26:38.596Z,6.4
2023-03-06T04:27:38.394Z,6.7
2023-03-06T04:28:38.215Z,6.0
2023-03-06T04:29:38.035Z,5.9
2023-03-06T04:30:37.861Z,7.1
2023-03-06T04:31:38.730Z,6.8
2023-03-06T04:32:38.516Z,6.6
2023-03-06T04:33:38.553Z,7.2
2023-03-06T04:34:38.106Z,6.5
2023-03-06T04:35:37.970Z,6.7
2023-03-06T04:36:38.597Z,6.1
2023-03-06T04:37:38.361Z,6.1
2023-03-06T04:38:38.192Z,7.2
2023-03-06T04:39:38.017Z,7.7
2023-03-06T04:40:38.732Z,6.1
2023-03-06T04:41:39.515Z,5.9
2023-03-06T04:42:38.309Z,7.7
2023-03-06T04:43:38.154Z,7.3
2023-03-06T04:44:37.958Z,5.9
2023-03-06T04:45:38.267Z,6.8
2023-03-06T04:46:38.035Z,7.1
2023-03-06T04:47:38.998Z,6.7
2023-03-06T04:48:38.696Z,6.3
2023-03-06T04:49:38.589Z,7.4
2023-03-06T04:50:38.241Z,6.6
2023-03-06T04:51:38.033Z,5.5
2023-03-06T04:52:38.686Z,6.4
2023-03-06T04:53:38.583Z,6.5
2023-03-06T04:54:38.292Z,6.4
2023-03-06T04:55:38.150Z,6.0
2023-03-06T04:56:37.964Z,6.5
2023-03-06T04:57:39.628Z,6.0
2023-03-06T04:58:38.536Z,5.2
2023-03-06T04:59:39.226Z,6.1
2023-03-06T05:00:38.330Z,6.7
2023-03-06T05:01:38.028Z,7.0
2023-03-06T05:02:39.041Z,6.0
2023-03-06T05:03:38.504Z,7.3
2023-03-06T05:04:38.305Z,6.8
2023-03-06T05:05:38.104Z,6.3
2023-03-06T05:06:37.939Z,6.6
2023-03-06T05:07:38.727Z,6.9
2023-03-06T05:08:38.574Z,5.5
2023-03-06T05:09:39.120Z,6.0
2023-03-06T05:10:38.154Z,5.4
2023-03-06T05:11:37.935Z,5.5
2023-03-06T05:12:38.789Z,5.7
2023-03-06T05:13:38.458Z,7.2
2023-03-06T05:14:38.693Z,5.4
2023-03-06T05:15:41.322Z,6.3
2023-03-06T05:16:38.387Z,7.2
2023-03-06T05:17:38.216Z,5.7
2023-03-06T05:18:38.052Z,6.2
2023-03-06T05:19:38.781Z,5.8
2023-03-06T05:20:38.495Z,6.1
2023-03-06T05:21:38.341Z,6.2
2023-03-06T05:22:38.172Z,5.9
2023-03-06T05:23:38.669Z,6.8
2023-03-06T05:24:38.249Z,6.1
2023-03-06T05:25:38.514Z,5.6
2023-03-06T05:26:37.893Z,5.3
2023-03-06T05:27:40.507Z,5.9
2023-03-06T05:28:38.525Z,6.1
2023-03-06T05:29:38.211Z,5.7
2023-03-06T05:30:38.109Z,6.0
2023-03-06T05:31:38.793Z,5.7
2023-03-06T05:32:38.741Z,4.8
2023-03-06T05:33:38.424Z,5.2
2023-03-06T05:34:38.616Z,4.9
2023-03-06T05:35:38.112Z,5.3
2023-03-06T05:36:37.899Z,5.9
2023-03-06T05:37:38.095Z,4.4
2023-03-06T05:38:38.352Z,5.0
2023-03-06T05:39:38.204Z,5.4
2023-03-06T05:40:39.110Z,5.9
2023-03-06T05:41:38.348Z,5.1
2023-03-06T05:42:38.041Z,4.8
2023-03-06T05:43:37.897Z,5.8
2023-03-06T05:44:38.661Z,4.6
2023-03-06T05:45:38.510Z,6.2
2023-03-06T05:46:38.759Z,6.0
2023-03-06T05:47:37.960Z,6.9
2023-03-06T05:48:39.146Z,5.7
2023-03-06T05:49:38.904Z,4.8
2023-03-06T05:50:38.675Z,6.3
2023-03-06T05:51:38.157Z,5.4
2023-03-06T05:52:38.050Z,5.9
2023-03-06T05:53:38.726Z,5.5
2023-03-06T05:54:38.704Z,5.2
2023-03-06T05:55:38.387Z,5.0
2023-03-06T05:56:38.180Z,5.4
2023-03-06T05:57:38.014Z,4.9
2023-03-06T05:58:38.681Z,5.3
2023-03-06T05:59:38.496Z,5.7
2023-03-06T06:00:38.332Z,5.6
2023-03-06T06:01:38.150Z,5.0
2023-03-06T06:02:38.173Z,5.1
2023-03-06T06:03:38.901Z,5.7
2023-03-06T06:04:38.529Z,4.6
2023-03-06T06:05:38.724Z,5.0
2023-03-06T06:06:38.181Z,6.1
2023-03-06T06:07:38.033Z,4.2
2023-03-06T06:08:39.515Z,5.6
2023-03-06T06:09:38.595Z,5.6
2023-03-06T06:10:38.676Z,5.1
2023-03-06T06:11:38.181Z,4.9
2023-03-06T06:12:38.035Z,4.4
2023-03-06T06:13:39.109Z,6.1
2023-03-06T06:14:38.557Z,5.6
2023-03-06T06:15:38.424Z,5.1
2023-03-06T06:16:38.152Z,6.0
2023-03-06T06:17:37.933Z,5.9
2023-03-06T06:18:41.038Z,4.9
2023-03-06T06:19:38.480Z,5.5
2023-03-06T06:20:38.300Z,6.1
2023-03-06T06:21:38.141Z,5.2
2023-03-06T06:22:37.987Z,5.4
2023-03-06T06:23:38.710Z,4.9
2023-03-06T06:24:38.662Z,4.8
2023-03-06T06:25:38.276Z,5.2
2023-03-06T06:26:38.286Z,5.6
2023-03-06T06:27:37.956Z,5.7
2023-03-06T06:28:38.587Z,5.5
2023-03-06T06:29:38.438Z,5.5
2023-03-06T06:30:38.254Z,5.5
2023-03-06T06:31:38.721Z,5.8
2023-03-06T06:32:38.118Z,5.7
2023-03-06T06:33:39.151Z,5.1
2023-03-06T06:34:38.217Z,5.8
2023-03-06T06:35:38.747Z,4.6
2023-03-06T06:36:38.995Z,5.1
2023-03-06T06:37:38.408Z,5.5
2023-03-06T06:38:38.156Z,4.2
2023-03-06T06:39:38.000Z,4.4
2023-03-06T06:40:38.615Z,3.7
2023-03-06T06:41:54.817Z,5.2
2023-03-06T06:42:40.256Z,4.9
2023-03-06T06:43:38.083Z,4.9
2023-03-06T06:44:37.945Z,5.1
2023-03-06T06:45:38.657Z,4.8
2023-03-06T06:47:18.282Z,4.0
2023-03-06T06:47:38.729Z,4.4
2023-03-06T06:48:38.098Z,5.4
2023-03-06T06:49:38.011Z,5.1
2023-03-06T06:50:38.551Z,4.2
2023-03-06T06:51:39.079Z,4.8
2023-03-06T06:52:38.270Z,5.1
2023-03-06T06:53:38.077Z,5.2
2023-03-06T06:54:38.771Z,5.5
2023-03-06T06:55:38.653Z,4.9
2023-03-06T06:56:38.495Z,4.4
2023-03-06T06:57:38.929Z,4.7
2023-03-06T06:58:38.095Z,3.9
2023-03-06T06:59:38.827Z,4.8
2023-03-06T07:00:38.537Z,5.3
2023-03-06T07:01:38.371Z,4.5
2023-03-06T07:02:38.206Z,5.0
2023-03-06T07:03:38.593Z,5.1
2023-03-06T07:04:42.461Z,4.1
2023-03-06T07:05:38.535Z,4.7
2023-03-06T07:06:38.381Z,4.4
2023-03-06T07:07:38.155Z,4.4
2023-03-06T07:08:37.941Z,3.8
2023-03-06T07:09:38.712Z,4.5
2023-03-06T07:10:38.428Z,4.0
2023-03-06T07:11:38.510Z,4.6
2023-03-06T07:12:38.070Z,5.0
2023-03-06T07:13:37.954Z,5.3
2023-03-06T07:14:38.621Z,5.1
2023-03-06T07:15:38.505Z,3.9
2023-03-06T07:16:38.417Z,4.3
2023-03-06T07:17:38.039Z,4.5
2023-03-06T07:18:37.862Z,4.5
2023-03-06T07:19:38.748Z,4.2
2023-03-06T07:20:38.564Z,3.6
2023-03-06T07:21:38.186Z,4.5
2023-03-06T07:22:50.313Z,5.0
2023-03-06T07:23:38.988Z,5.0
2023-03-06T07:24:38.550Z,4.6
2023-03-06T07:25:38.703Z,5.0
2023-03-06T07:26:38.227Z,4.2
2023-03-06T07:27:38.116Z,4.1
2023-03-06T07:28:51.626Z,4.2
2023-03-06T07:29:38.431Z,5.2
2023-03-06T07:30:41.299Z,5.1
2023-03-06T07:31:38.088Z,5.0
2023-03-06T07:32:37.940Z,4.0
2023-03-06T07:33:38.610Z,4.4
2023-03-06T07:34:38.430Z,4.9
2023-03-06T07:35:39.215Z,4.8
2023-03-06T07:36:38.344Z,4.7
2023-03-06T07:37:37.933Z,5.8
2023-03-06T07:38:38.612Z,2.7
2023-03-06T07:39:38.468Z,4.0
2023-03-06T07:40:38.187Z,4.5
2023-03-06T07:41:38.051Z,4.4
2023-03-06T07:42:38.802Z,4.0
2023-03-06T07:43:39.265Z,4.4
2023-03-06T07:44:38.416Z,3.4
2023-03-06T07:45:38.193Z,5.1
2023-03-06T07:46:38.086Z,4.3
2023-03-06T07:47:38.842Z,3.8
2023-03-06T07:48:39.079Z,4.4
2023-03-06T07:49:38.238Z,4.1
2023-03-06T07:50:38.085Z,4.5
2023-03-06T07:51:37.938Z,4.6
2023-03-06T07:52:38.703Z,3.9
2023-03-06T07:53:38.456Z,4.2
2023-03-06T07:54:38.361Z,4.4
2023-03-06T07:55:39.356Z,3.1
2023-03-06T07:56:37.951Z,3.8
2023-03-06T07:57:38.736Z,4.0
2023-03-06T07:58:39.635Z,4.8
2023-03-06T07:59:38.272Z,3.7
2023-03-06T08:00:38.214Z,4.8
2023-03-06T08:01:38.769Z,4.8
2023-03-06T08:02:39.021Z,4.7
2023-03-06T08:03:38.446Z,4.5
2023-03-06T08:04:38.211Z,4.0
2023-03-06T08:05:38.115Z,3.6
2023-03-06T08:06:38.698Z,4.7
2023-03-06T08:07:38.508Z,4.4
2023-03-06T08:08:39.223Z,3.7
2023-03-06T08:09:38.126Z,4.4
2023-03-06T08:10:37.991Z,4.0
2023-03-06T08:11:38.716Z,3.8
2023-03-06T08:12:38.528Z,5.6
2023-03-06T08:13:38.404Z,4.2
2023-03-06T08:14:38.169Z,4.9
2023-03-06T08:15:37.955Z,5.0
2023-03-06T08:16:38.653Z,3.7
2023-03-06T08:17:38.574Z,4.4
2023-03-06T08:18:38.321Z,4.5
2023-03-06T08:19:38.125Z,5.3
2023-03-06T08:20:38.744Z,3.9
2023-03-06T08:21:38.696Z,3.9
2023-03-06T08:22:38.358Z,4.6
2023-03-06T08:23:38.635Z,4.8
2023-03-06T08:24:38.010Z,4.8
2023-03-06T08:25:38.692Z,5.2
2023-03-06T08:26:38.538Z,6.9
2023-03-06T08:27:38.418Z,5.8
2023-03-06T08:28:38.462Z,6.1
2023-03-06T08:29:38.027Z,7.2
2023-03-06T08:30:38.741Z,6.3
2023-03-06T08:31:39.688Z,4.1
2023-03-06T08:32:38.798Z,6.4
2023-03-06T08:33:39.579Z,5.0
2023-03-06T08:34:38.357Z,5.9
2023-03-06T08:35:38.629Z,6.2
2023-03-06T08:36:38.445Z,6.5
2023-03-06T08:37:38.373Z,6.3
2023-03-06T08:38:38.505Z,6.5
2023-03-06T08:39:38.288Z,6.1
2023-03-06T08:40:38.152Z,6.0
2023-03-06T08:41:37.983Z,5.6
2023-03-06T08:42:38.616Z,5.6
2023-03-06T08:43:38.420Z,6.2
2023-03-06T08:44:38.214Z,5.1
2023-03-06T08:45:38.119Z,5.7
2023-03-06T08:46:39.357Z,5.6
2023-03-06T08:47:38.595Z,5.8
2023-03-06T08:48:38.604Z,5.3
2023-03-06T08:49:38.256Z,4.7
2023-03-06T08:50:39.836Z,6.1
2023-03-06T08:51:38.712Z,5.9
2023-03-06T08:52:38.490Z,5.4
2023-03-06T08:53:43.578Z,6.5
2023-03-06T08:54:38.170Z,5.5
2023-03-06T08:55:38.416Z,6.6
2023-03-06T08:56:38.387Z,5.8
2023-03-06T08:57:38.444Z,4.9
2023-03-06T08:58:38.221Z,5.0
2023-03-06T08:59:38.096Z,5.3
2023-03-06T09:00:38.856Z,6.3
2023-03-06T09:01:39.348Z,5.5
2023-03-06T09:02:38.555Z,5.6
2023-03-06T09:03:38.210Z,5.5
2023-03-06T09:04:38.052Z,4.2
2023-03-06T09:05:38.891Z,5.2
2023-03-06T09:06:40.159Z,5.4
2023-03-06T09:07:37.909Z,5.4
2023-03-06T09:08:38.685Z,4.5
2023-03-06T09:09:38.012Z,4.9
2023-03-06T09:10:38.695Z,4.5
2023-03-06T09:11:38.822Z,5.4
2023-03-06T09:12:49.741Z,4.1
2023-03-06T09:13:38.184Z,5.9
2023-03-06T09:14:37.861Z,5.4
2023-03-06T09:15:38.646Z,4.4
2023-03-06T09:16:38.674Z,5.2
2023-03-06T09:17:38.670Z,4.1
2023-03-06T09:18:38.053Z,5.3
2023-03-06T09:19:37.855Z,5.2
2023-03-06T09:20:38.547Z,5.2
2023-03-06T09:21:38.403Z,5.2
2023-03-06T09:22:38.351Z,5.3
2023-03-06T09:23:38.471Z,5.1
2023-03-06T09:24:38.755Z,4.8
2023-03-06T09:25:38.524Z,4.9
2023-03-06T09:26:46.280Z,4.9
2023-03-06T09:27:38.524Z,5.4
2023-03-06T09:28:38.683Z,6.5
2023-03-06T09:29:38.652Z,5.6
2023-03-06T09:30:39.138Z,5.1
2023-03-06T09:31:38.246Z,4.6
2023-03-06T09:32:38.068Z,5.4
2023-03-06T09:33:37.940Z,5.9
2023-03-06T09:34:38.598Z,5.0
2023-03-06T09:35:48.778Z,5.9
2023-03-06T09:36:53.719Z,5.1
2023-03-06T09:37:38.061Z,4.9
2023-03-06T09:38:37.886Z,4.1
2023-03-06T09:39:38.540Z,5.3
2023-03-06T09:40:43.244Z,4.5
2023-03-06T09:41:41.667Z,5.1
2023-03-06T09:42:38.477Z,4.6
2023-03-06T09:43:43.717Z,4.9
2023-03-06T09:44:38.758Z,5.3
2023-03-06T09:45:38.756Z,5.2
2023-03-06T09:46:55.043Z,5.3
2023-03-06T09:47:56.432Z,4.8
2023-03-06T09:48:52.014Z,5.5
2023-03-06T09:49:51.494Z,5.0
2023-03-06T09:50:49.508Z,5.1
2023-03-06T09:51:43.434Z,5.7
2023-03-06T09:52:56.448Z,4.7
2023-03-06T09:53:46.024Z,5.2
2023-03-06T09:54:44.833Z,5.2
2023-03-06T09:55:39.246Z,4.8
2023-03-06T09:56:41.392Z,4.0
2023-03-06T09:57:50.552Z,6.4
2023-03-06T09:58:41.168Z,5.0
2023-03-06T09:59:42.237Z,4.4
2023-03-06T10:00:59.294Z,5.3
2023-03-06T10:01:40.505Z,4.3
2023-03-06T10:02:47.021Z,3.9
2023-03-06T10:03:43.374Z,4.1
2023-03-06T10:04:40.441Z,4.1
2023-03-06T10:05:40.287Z,5.4
2023-03-06T10:06:45.366Z,4.9
2023-03-06T10:07:44.184Z,5.4
2023-03-06T10:08:50.324Z,5.6
2023-03-06T10:09:52.955Z,4.6
2023-03-06T10:10:49.017Z,4.1
2023-03-06T10:11:51.545Z,4.5
2023-03-06T10:12:40.262Z,5.0
2023-03-06T10:13:49.468Z,4.1
2023-03-06T10:14:43.305Z,4.4
2023-03-06T10:15:40.465Z,4.3
2023-03-06T10:16:38.026Z,4.6
2023-03-06T10:17:40.951Z,4.8
2023-03-06T10:18:38.536Z,4.5
2023-03-06T10:19:38.452Z,4.4
2023-03-06T10:20:48.706Z,4.4
2023-03-06T10:21:42.815Z,4.9
2023-03-06T10:22:38.812Z,5.0
2023-03-06T10:23:53.585Z,4.9
2023-03-06T10:24:43.633Z,4.1
2023-03-06T10:25:43.340Z,4.4
2023-03-06T10:26:48.274Z,4.6
2023-03-06T10:27:43.000Z,5.4
2023-03-06T10:28:41.759Z,3.6
2023-03-06T10:30:02.536Z,5.8
2023-03-06T10:30:45.595Z,4.6
2023-03-06T10:31:39.606Z,5.3
2023-03-06T10:32:57.018Z,4.7
2023-03-06T10:33:49.044Z,5.3
2023-03-06T10:34:38.656Z,4.9
2023-03-06T10:35:45.584Z,4.7
2023-03-06T10:36:38.593Z,4.2
2023-03-06T10:37:38.428Z,4.1
2023-03-06T10:38:38.499Z,4.6
2023-03-06T10:39:38.434Z,5.1
2023-03-06T10:40:42.780Z,4.6
2023-03-06T10:41:38.610Z,4.2
2023-03-06T10:42:38.490Z,4.6
2023-03-06T10:43:45.932Z,5.2
2023-03-06T10:44:38.139Z,4.1
2023-03-06T10:45:51.087Z,5.0
2023-03-06T10:46:42.617Z,5.0
2023-03-06T10:47:38.464Z,4.8
2023-03-06T10:48:40.968Z,5.4
2023-03-06T10:49:38.757Z,4.4
2023-03-06T10:50:38.350Z,4.9
2023-03-06T10:51:38.064Z,4.9
2023-03-06T10:52:37.934Z,3.5
2023-03-06T10:53:43.524Z,4.3
2023-03-06T10:54:39.684Z,6.4
2023-03-06T10:55:38.241Z,4.8
2023-03-06T10:56:39.327Z,4.2
2023-03-06T10:57:37.940Z,3.8
2023-03-06T10:58:38.568Z,5.0
2023-03-06T10:59:43.371Z,3.9
2023-03-06T11:00:38.607Z,3.9
2023-03-06T11:01:39.461Z,4.5
2023-03-06T11:02:38.936Z,4.4
2023-03-06T11:03:38.328Z,5.1
2023-03-06T11:04:39.338Z,3.5
2023-03-06T11:06:06.866Z,4.1
2023-03-06T11:06:38.455Z,4.4
2023-03-06T11:07:43.179Z,4.5
2023-03-06T11:08:38.957Z,4.5
2023-03-06T11:09:38.023Z,4.7
2023-03-06T11:10:38.577Z,3.4
2023-03-06T11:11:38.480Z,4.4
2023-03-06T11:12:39.000Z,4.8
2023-03-06T11:13:39.571Z,4.6
2023-03-06T11:14:38.757Z,3.9
2023-03-06T11:15:38.655Z,4.6
2023-03-06T11:16:38.485Z,3.8
2023-03-06T11:17:43.243Z,4.4
2023-03-06T11:18:39.026Z,4.5
2023-03-06T11:19:37.860Z,5.8
2023-03-06T11:20:52.625Z,4.6
2023-03-06T11:21:38.608Z,4.6
2023-03-06T11:22:38.895Z,4.9
2023-03-06T11:23:42.819Z,4.9
2023-03-06T11:24:42.327Z,4.8
2023-03-06T11:25:44.744Z,5.4
2023-03-06T11:26:47.968Z,4.5
2023-03-06T11:27:40.800Z,4.2
2023-03-06T11:28:42.909Z,4.5
2023-03-06T11:29:39.733Z,4.4
2023-03-06T11:30:41.246Z,5.5
2023-03-06T11:31:46.028Z,4.2
2023-03-06T11:32:44.957Z,3.6
2023-03-06T11:33:48.544Z,4.6
2023-03-06T11:34:53.566Z,5.4
2023-03-06T11:35:43.447Z,4.9
2023-03-06T11:36:46.064Z,5.4
2023-03-06T11:37:56.457Z,4.3
2023-03-06T11:38:41.397Z,3.8
2023-03-06T11:39:43.485Z,5.3
2023-03-06T11:40:42.446Z,3.7
2023-03-06T11:41:58.036Z,4.1
2023-03-06T11:42:43.308Z,4.8
2023-03-06T11:43:43.212Z,4.4
2023-03-06T11:44:52.022Z,4.6
2023-03-06T11:45:50.567Z,4.1
2023-03-06T11:46:46.526Z,4.6
2023-03-06T11:47:44.753Z,4.2
2023-03-06T11:48:51.185Z,5.2
2023-03-06T11:49:40.073Z,3.7
2023-03-06T11:50:42.194Z,3.9
2023-03-06T11:51:43.353Z,4.2
2023-03-06T11:52:56.216Z,4.8
2023-03-06T11:53:39.201Z,4.6
2023-03-06T11:54:38.086Z,4.0
2023-03-06T11:55:42.797Z,4.1
2023-03-06T11:56:43.444Z,5.4
2023-03-06T11:57:46.016Z,3.9
2023-03-06T11:58:43.107Z,4.1
2023-03-06T11:59:45.503Z,4.2
2023-03-06T12:00:43.660Z,4.3
2023-03-06T12:01:41.940Z,4.7
2023-03-06T12:02:45.981Z,4.6
2023-03-06T12:03:43.080Z,5.1
2023-03-06T12:04:45.483Z,3.0
2023-03-06T12:05:58.493Z,4.4
2023-03-06T12:06:43.466Z,3.4
2023-03-06T12:07:45.992Z,3.6
2023-03-06T12:08:56.093Z,3.6
2023-03-06T12:09:55.930Z,3.0
2023-03-06T12:10:44.625Z,4.7
2023-03-06T12:11:45.063Z,3.5
2023-03-06T12:12:43.186Z,3.9
2023-03-06T12:13:45.516Z,3.5
2023-03-06T12:14:48.523Z,3.7
2023-03-06T12:15:49.559Z,4.3
2023-03-06T12:16:43.455Z,3.7
2023-03-06T12:17:56.448Z,4.6
2023-03-06T12:18:52.001Z,4.6
2023-03-06T12:19:43.240Z,4.8
2023-03-06T12:20:51.511Z,4.8
2023-03-06T12:21:45.485Z,3.5
2023-03-06T12:22:57.757Z,4.4
2023-03-06T12:23:43.313Z,4.6
2023-03-06T12:24:55.003Z,4.2
2023-03-06T12:25:39.793Z,3.5
2023-03-06T12:26:54.484Z,5.1
2023-03-06T12:27:49.129Z,4.7
2023-03-06T12:28:46.515Z,4.9
2023-03-06T12:29:52.023Z,4.6
2023-03-06T12:30:43.000Z,5.4
2023-03-06T12:31:48.576Z,4.0
2023-03-06T12:32:43.605Z,4.1
2023-03-06T12:33:52.016Z,3.8
2023-03-06T12:34:43.207Z,4.1
2023-03-06T12:35:48.595Z,3.7
2023-03-06T12:36:55.580Z,4.6
2023-03-06T12:38:01.013Z,5.4
2023-03-06T12:38:55.024Z,4.6
2023-03-06T12:39:46.011Z,5.1
2023-03-06T12:40:56.435Z,6.1
2023-03-06T12:41:57.994Z,4.7
2023-03-06T12:42:42.984Z,5.1
2023-03-06T12:43:55.928Z,4.5
2023-03-06T12:44:43.576Z,5.2
2023-03-06T12:45:38.568Z,5.2
2023-03-06T12:46:42.376Z,4.8
2023-03-06T12:47:42.259Z,4.1
2023-03-06T12:48:39.027Z,5.3
2023-03-06T12:49:40.854Z,5.1
2023-03-06T12:50:38.999Z,4.0
2023-03-06T12:51:38.613Z,4.4
2023-03-06T12:52:38.338Z,4.2
2023-03-06T12:53:39.661Z,4.8
2023-03-06T12:54:39.603Z,5.1
2023-03-06T12:55:43.427Z,4.7
2023-03-06T12:56:38.824Z,4.6
2023-03-06T12:57:38.068Z,5.0
2023-03-06T12:58:51.698Z,5.0
2023-03-06T12:59:42.413Z,3.8
2023-03-06T13:00:43.810Z,5.5
2023-03-06T13:01:56.490Z,5.1
2023-03-06T13:02:45.616Z,3.9
2023-03-06T13:03:43.765Z,4.8
2023-03-06T13:04:42.984Z,4.5
2023-03-06T13:05:56.926Z,4.6
2023-03-06T13:06:55.069Z,3.4
2023-03-06T13:07:43.328Z,4.6
2023-03-06T13:08:44.231Z,3.9
2023-03-06T13:09:55.992Z,5.3
2023-03-06T13:10:39.200Z,4.4
2023-03-06T13:11:51.570Z,5.4
2023-03-06T13:12:42.855Z,4.6
2023-03-06T13:13:42.518Z,3.5
2023-03-06T13:14:53.868Z,4.5
2023-03-06T13:15:42.872Z,5.0
2023-03-06T13:16:38.166Z,4.9
2023-03-06T13:17:37.993Z,4.6
2023-03-06T13:18:43.466Z,4.2
2023-03-06T13:19:37.942Z,4.8
2023-03-06T13:20:42.980Z,5.5
2023-03-06T13:21:45.951Z,4.5
2023-03-06T13:22:38.849Z,4.1
2023-03-06T13:23:48.493Z,4.8
2023-03-06T13:24:37.975Z,4.4
2023-03-06T13:25:46.062Z,3.7
2023-03-06T13:26:43.308Z,3.9
2023-03-06T13:27:58.026Z,4.6
2023-03-06T13:28:39.960Z,4.6
2023-03-06T13:29:43.790Z,4.2
2023-03-06T13:30:43.352Z,5.3
2023-03-06T13:31:43.477Z,4.7
2023-03-06T13:32:38.255Z,4.5
2023-03-06T13:33:42.941Z,4.4
2023-03-06T13:34:45.492Z,4.5
2023-03-06T13:35:45.643Z,4.6
2023-03-06T13:36:39.827Z,5.0
2023-03-06T13:37:43.689Z,4.2
2023-03-06T13:38:46.052Z,4.1
2023-03-06T13:40:01.711Z,4.4
2023-03-06T13:40:38.536Z,4.1
2023-03-06T13:41:57.024Z,4.5
2023-03-06T13:42:48.596Z,3.9